createdAt,value
2022-08-21T00:00:08.664Z,18.21
2022-08-21T00:02:51.160Z,18.18
2022-08-21T00:05:24.795Z,18.19
2022-08-21T00:07:57.430Z,18.16
2022-08-21T00:10:29.885Z,18.13
2022-08-21T00:13:02.814Z,18.11
2022-08-21T00:15:37.072Z,18.13
2022-08-21T00:18:11.295Z,18.10
2022-08-21T00:20:45.377Z,18.19
2022-08-21T00:23:18.022Z,18.11
2022-08-21T00:25:50.639Z,18.15
2022-08-21T00:28:23.060Z,18.17
2022-08-21T00:30:56.918Z,18.14
2022-08-21T00:33:30.454Z,18.18
2022-08-21T00:36:04.202Z,18.19
2022-08-21T00:38:36.747Z,18.19
2022-08-21T00:41:37.748Z,18.14
2022-08-21T00:44:04.451Z,18.17
2022-08-21T00:46:38.007Z,18.04
2022-08-21T00:49:12.214Z,17.98
2022-08-21T00:51:48.737Z,17.85
2022-08-21T00:54:25.018Z,17.87
2022-08-21T00:57:02.159Z,17.85
2022-08-21T00:59:39.021Z,17.80
2022-08-21T01:02:11.957Z,17.81
2022-08-21T01:04:45.261Z,17.77
2022-08-21T01:07:18.291Z,17.75
2022-08-21T01:09:52.722Z,17.75
2022-08-21T01:12:26.143Z,17.77
2022-08-21T01:14:59.034Z,17.81
2022-08-21T01:17:32.869Z,17.77
2022-08-21T01:20:09.220Z,17.84
2022-08-21T01:22:42.400Z,17.88
2022-08-21T01:25:17.064Z,17.87
2022-08-21T01:27:49.950Z,17.82
2022-08-21T01:30:26.878Z,17.84
2022-08-21T01:32:59.417Z,17.83
2022-08-21T01:35:32.036Z,17.77
2022-08-21T01:38:05.590Z,17.72
2022-08-21T01:40:38.033Z,17.75
2022-08-21T01:43:17.398Z,17.66
2022-08-21T01:45:56.259Z,17.63
2022-08-21T01:48:28.697Z,17.64
2022-08-21T01:51:01.149Z,17.66
2022-08-21T01:53:36.955Z,17.71
2022-08-21T01:56:13.827Z,17.71
2022-08-21T01:58:47.992Z,17.71
2022-08-21T02:01:20.531Z,17.68
2022-08-21T02:03:53.012Z,17.67
2022-08-21T02:06:26.093Z,17.70
2022-08-21T02:08:59.146Z,17.69
2022-08-21T02:11:31.714Z,17.58
2022-08-21T02:14:04.183Z,17.57
2022-08-21T02:16:36.760Z,17.58
2022-08-21T02:19:09.820Z,17.59
2022-08-21T02:21:42.695Z,17.53
2022-08-21T02:24:16.353Z,17.51
2022-08-21T02:26:48.776Z,17.55
2022-08-21T02:29:21.386Z,17.54
2022-08-21T02:31:53.818Z,17.51
2022-08-21T02:34:29.271Z,17.48
2022-08-21T02:37:01.965Z,17.42
2022-08-21T02:39:35.095Z,17.28
2022-08-21T02:42:07.779Z,17.32
2022-08-21T02:44:40.167Z,17.28
2022-08-21T02:47:12.632Z,17.32
2022-08-21T02:49:45.007Z,17.21
2022-08-21T02:52:17.454Z,17.24
2022-08-21T02:54:50.710Z,17.20
2022-08-21T02:57:23.332Z,17.15
2022-08-21T02:59:55.654Z,17.14
2022-08-21T03:02:28.142Z,17.13
2022-08-21T03:05:00.702Z,17.14
2022-08-21T03:07:34.144Z,17.13
2022-08-21T03:10:08.295Z,17.11
2022-08-21T03:12:41.021Z,17.08
2022-08-21T03:15:15.544Z,17.04
2022-08-21T03:17:48.744Z,17.01
2022-08-21T03:20:24.019Z,16.87
2022-08-21T03:22:56.491Z,16.94
2022-08-21T03:25:39.749Z,16.92
2022-08-21T03:28:16.277Z,16.90
2022-08-21T03:30:51.273Z,16.96
2022-08-21T03:33:24.347Z,16.94
2022-08-21T03:36:00.836Z,16.96
2022-08-21T03:38:34.636Z,16.97
2022-08-21T03:41:09.185Z,16.89
2022-08-21T03:43:41.693Z,16.88
2022-08-21T03:46:14.369Z,16.89
2022-08-21T03:48:46.995Z,16.95
2022-08-21T03:51:19.659Z,16.94
2022-08-21T03:53:52.106Z,16.97
2022-08-21T03:56:25.162Z,16.95
2022-08-21T03:58:57.967Z,16.89
2022-08-21T04:01:30.836Z,16.83
2022-08-21T04:04:04.341Z,16.93
2022-08-21T04:06:38.019Z,16.85
2022-08-21T04:09:10.587Z,16.84
2022-08-21T04:11:43.998Z,16.86
2022-08-21T04:14:17.701Z,16.75
2022-08-21T04:16:50.071Z,16.85
2022-08-21T04:19:23.630Z,16.82
2022-08-21T04:21:56.043Z,16.70
2022-08-21T04:24:29.578Z,16.66
2022-08-21T04:27:03.271Z,16.61
2022-08-21T04:29:39.860Z,16.66
2022-08-21T04:32:12.610Z,16.71
2022-08-21T04:34:45.266Z,16.67
2022-08-21T04:37:17.713Z,16.76
2022-08-21T04:39:53.443Z,16.71
2022-08-21T04:42:28.057Z,16.71
2022-08-21T04:45:00.805Z,16.81
2022-08-21T04:47:52.355Z,16.87
2022-08-21T04:50:31.127Z,16.91
2022-08-21T04:53:14.870Z,16.97
2022-08-21T04:55:48.547Z,16.95
2022-08-21T04:58:25.292Z,16.97
2022-08-21T05:00:58.905Z,17.04
2022-08-21T05:03:33.733Z,16.99
2022-08-21T05:06:10.021Z,16.91
2022-08-21T05:08:44.485Z,16.94
2022-08-21T05:11:17.064Z,16.95
2022-08-21T05:13:54.942Z,16.95
2022-08-21T05:16:36.412Z,16.95
2022-08-21T05:19:10.515Z,16.99
2022-08-21T05:21:45.794Z,17.02
2022-08-21T05:24:18.435Z,17.05
2022-08-21T05:26:50.948Z,17.05
2022-08-21T05:29:24.086Z,17.03
2022-08-21T05:31:56.822Z,17.05
2022-08-21T05:34:29.409Z,17.10
2022-08-21T05:37:05.604Z,17.12
2022-08-21T05:40:20.430Z,17.17
2022-08-21T05:42:33.023Z,17.23
2022-08-21T05:45:06.998Z,17.31
2022-08-21T05:47:39.857Z,17.40
2022-08-21T05:50:12.514Z,17.47
2022-08-21T05:52:44.964Z,17.51
2022-08-21T05:55:17.369Z,17.57
2022-08-21T05:57:49.837Z,17.64
2022-08-21T06:00:24.147Z,17.68
2022-08-21T06:02:57.156Z,17.69
2022-08-21T06:05:36.609Z,17.69
2022-08-21T06:08:10.055Z,17.79
2022-08-21T06:10:42.544Z,17.77
2022-08-21T06:13:17.395Z,17.81
2022-08-21T06:15:50.964Z,17.93
2022-08-21T06:18:23.432Z,18.00
2022-08-21T06:20:55.879Z,18.13
2022-08-21T06:23:33.290Z,18.21
2022-08-21T06:26:08.047Z,18.29
2022-08-21T06:28:41.399Z,18.35
2022-08-21T06:31:17.563Z,18.50
2022-08-21T06:33:50.608Z,18.54
2022-08-21T06:36:23.387Z,18.70
2022-08-21T06:38:57.832Z,18.85
2022-08-21T06:41:31.086Z,18.99
2022-08-21T06:44:11.741Z,19.13
2022-08-21T06:46:44.857Z,19.23
2022-08-21T06:49:21.553Z,19.40
2022-08-21T06:51:54.255Z,19.56
2022-08-21T06:54:26.687Z,19.69
2022-08-21T06:56:59.111Z,19.84
2022-08-21T06:59:31.980Z,19.95
2022-08-21T07:02:05.205Z,20.07
2022-08-21T07:04:37.685Z,20.30
2022-08-21T07:07:10.209Z,20.47
2022-08-21T07:09:42.693Z,20.53
2022-08-21T07:12:15.279Z,20.72
2022-08-21T07:14:47.700Z,20.71
2022-08-21T07:17:21.239Z,20.90
2022-08-21T07:19:53.693Z,21.04
2022-08-21T07:22:27.802Z,21.29
2022-08-21T07:25:00.250Z,21.51
2022-08-21T07:27:32.819Z,21.74
2022-08-21T07:30:06.829Z,21.68
2022-08-21T07:32:40.630Z,21.75
2022-08-21T07:35:13.320Z,21.94
2022-08-21T07:37:46.284Z,21.98
2022-08-21T07:40:19.097Z,21.88
2022-08-21T07:42:52.123Z,21.89
2022-08-21T07:45:25.161Z,21.99
2022-08-21T07:47:58.320Z,22.18
2022-08-21T07:50:31.249Z,21.89
2022-08-21T07:53:04.378Z,22.07
2022-08-21T07:55:36.836Z,22.39
2022-08-21T07:58:09.270Z,22.45
2022-08-21T08:00:42.197Z,22.61
2022-08-21T08:03:15.269Z,22.70
2022-08-21T08:05:58.699Z,22.92
2022-08-21T08:08:31.552Z,23.19
2022-08-21T08:11:04.103Z,23.10
2022-08-21T08:13:39.610Z,23.10
2022-08-21T08:16:12.131Z,23.21
2022-08-21T08:18:46.057Z,23.38
2022-08-21T08:21:21.110Z,23.54
2022-08-21T08:23:53.740Z,23.79
2022-08-21T08:26:26.233Z,23.92
2022-08-21T08:28:58.675Z,24.08
2022-08-21T08:31:31.311Z,23.86
2022-08-21T08:34:04.569Z,23.66
2022-08-21T08:36:37.699Z,23.62
2022-08-21T08:39:13.044Z,23.77
2022-08-21T08:42:32.084Z,23.81
2022-08-21T08:45:02.523Z,24.15
2022-08-21T08:47:38.318Z,24.21
2022-08-21T08:50:17.943Z,24.26
2022-08-21T08:52:57.920Z,24.37
2022-08-21T08:55:35.498Z,24.27
2022-08-21T08:58:09.647Z,24.27
2022-08-21T09:00:51.970Z,24.34
2022-08-21T09:03:25.707Z,24.27
2022-08-21T09:06:07.691Z,24.21
2022-08-21T09:08:50.088Z,24.32
2022-08-21T09:11:29.709Z,24.50
2022-08-21T09:14:12.023Z,24.53
2022-08-21T09:16:54.171Z,24.59
2022-08-21T09:19:39.641Z,24.99
2022-08-21T09:22:24.789Z,25.10
2022-08-21T09:25:12.858Z,25.43
2022-08-21T09:27:45.265Z,25.29
2022-08-21T09:30:20.080Z,25.46
2022-08-21T09:32:52.663Z,25.32
2022-08-21T09:35:25.996Z,25.28
2022-08-21T09:38:03.209Z,25.39
2022-08-21T09:40:40.554Z,25.23
2022-08-21T09:43:19.331Z,25.05
2022-08-21T09:46:04.161Z,25.09
2022-08-21T09:48:43.438Z,25.06
2022-08-21T09:51:18.435Z,25.12
2022-08-21T09:53:57.055Z,25.05
2022-08-21T09:56:51.287Z,25.22
2022-08-21T09:59:35.726Z,25.20
2022-08-21T10:02:27.470Z,25.28
2022-08-21T10:05:04.017Z,25.20
2022-08-21T10:07:38.866Z,25.21
2022-08-21T10:10:19.072Z,25.27
2022-08-21T10:13:04.906Z,25.24
2022-08-21T10:15:48.113Z,25.25
2022-08-21T10:18:28.375Z,25.41
2022-08-21T10:21:09.139Z,25.48
2022-08-21T10:23:59.984Z,25.54
2022-08-21T10:26:46.238Z,25.71
2022-08-21T10:29:33.477Z,25.81
2022-08-21T10:32:26.059Z,25.79
2022-08-21T10:35:08.665Z,25.95
2022-08-21T10:37:53.435Z,26.22
2022-08-21T10:40:30.909Z,26.18
2022-08-21T10:43:22.147Z,26.40
2022-08-21T10:46:01.321Z,26.61
2022-08-21T10:48:37.750Z,26.75
2022-08-21T10:51:16.409Z,26.79
2022-08-21T10:54:00.503Z,26.80
2022-08-21T10:56:38.726Z,26.82
2022-08-21T10:59:29.224Z,26.73
2022-08-21T11:02:11.835Z,26.78
2022-08-21T11:04:54.547Z,26.41
2022-08-21T11:07:33.648Z,26.47
2022-08-21T11:10:16.341Z,26.87
2022-08-21T11:12:52.980Z,26.84
2022-08-21T11:15:34.897Z,26.84
2022-08-21T11:18:24.219Z,26.88
2022-08-21T11:21:05.388Z,26.78
2022-08-21T11:23:44.324Z,26.94
2022-08-21T11:26:24.462Z,26.57
2022-08-21T11:29:04.972Z,26.47
2022-08-21T11:31:52.483Z,26.73
2022-08-21T11:34:42.337Z,26.68
2022-08-21T11:37:23.760Z,26.73
2022-08-21T11:40:04.828Z,26.76
2022-08-21T11:42:45.956Z,26.70
2022-08-21T11:45:28.331Z,26.81
2022-08-21T11:48:11.354Z,26.66
2022-08-21T11:50:46.482Z,26.53
2022-08-21T11:53:25.163Z,26.21
2022-08-21T11:56:03.022Z,26.24
2022-08-21T11:58:39.159Z,26.38
2022-08-21T12:01:17.263Z,26.57
2022-08-21T12:03:57.303Z,26.56
2022-08-21T12:06:32.111Z,26.39
2022-08-21T12:09:07.738Z,26.50
2022-08-21T12:11:48.206Z,26.33
2022-08-21T12:14:20.636Z,26.44
2022-08-21T12:17:04.368Z,26.21
2022-08-21T12:19:37.431Z,26.13
2022-08-21T12:22:13.163Z,25.98
2022-08-21T12:24:49.242Z,25.90
2022-08-21T12:27:28.794Z,25.77
2022-08-21T12:30:05.757Z,25.70
2022-08-21T12:32:45.850Z,25.70
2022-08-21T12:35:25.715Z,25.72
2022-08-21T12:38:03.128Z,25.60
2022-08-21T12:40:41.232Z,25.34
2022-08-21T12:43:19.876Z,25.24
2022-08-21T12:45:52.785Z,25.20
2022-08-21T12:48:29.561Z,25.04
2022-08-21T12:51:11.800Z,24.86
2022-08-21T12:53:48.498Z,24.83
2022-08-21T12:56:23.969Z,24.87
2022-08-21T12:59:03.350Z,24.79
2022-08-21T13:01:41.694Z,24.72
2022-08-21T13:04:20.575Z,24.68
2022-08-21T13:06:56.435Z,24.75
2022-08-21T13:09:31.512Z,24.73
2022-08-21T13:12:09.160Z,24.74
2022-08-21T13:14:46.081Z,24.64
2022-08-21T13:17:23.367Z,24.76
2022-08-21T13:20:00.703Z,24.79
2022-08-21T13:22:37.174Z,24.83
2022-08-21T13:25:12.198Z,24.84
2022-08-21T13:27:56.551Z,24.75
2022-08-21T13:30:30.783Z,24.80
2022-08-21T13:33:12.292Z,24.90
2022-08-21T13:35:51.461Z,25.09
2022-08-21T13:38:27.627Z,25.00
2022-08-21T13:41:04.756Z,25.01
2022-08-21T13:43:37.931Z,24.83
2022-08-21T13:46:14.895Z,24.65
2022-08-21T13:48:47.415Z,24.80
2022-08-21T13:51:20.214Z,24.73
2022-08-21T13:53:55.101Z,24.83
2022-08-21T13:56:29.939Z,24.93
2022-08-21T13:59:04.110Z,24.87
2022-08-21T14:01:40.129Z,24.87
2022-08-21T14:04:20.099Z,24.88
2022-08-21T14:06:53.622Z,24.92
2022-08-21T14:09:31.387Z,24.93
2022-08-21T14:12:23.305Z,24.92
2022-08-21T14:14:58.381Z,24.85
2022-08-21T14:17:34.032Z,24.87
2022-08-21T14:20:09.649Z,24.79
2022-08-21T14:22:44.896Z,24.75
2022-08-21T14:25:36.978Z,24.74
2022-08-21T14:28:27.086Z,24.69
2022-08-21T14:31:13.451Z,24.73
2022-08-21T14:33:46.091Z,24.57
2022-08-21T14:36:18.819Z,24.42
2022-08-21T14:38:51.303Z,24.27
2022-08-21T14:41:27.888Z,24.27
2022-08-21T14:44:09.536Z,24.32
2022-08-21T14:46:45.834Z,24.34
2022-08-21T14:49:30.517Z,24.20
2022-08-21T14:52:03.445Z,24.21
2022-08-21T14:54:35.891Z,24.27
2022-08-21T14:57:12.259Z,24.44
2022-08-21T14:59:44.739Z,24.56
2022-08-21T15:02:17.107Z,24.69
2022-08-21T15:04:49.523Z,24.83
2022-08-21T15:07:21.902Z,24.96
2022-08-21T15:09:54.332Z,24.88
2022-08-21T15:12:27.722Z,24.90
2022-08-21T15:15:00.234Z,24.99
2022-08-21T15:17:32.680Z,25.02
2022-08-21T15:20:07.253Z,24.87
2022-08-21T15:22:39.719Z,24.94
2022-08-21T15:25:20.243Z,24.98
2022-08-21T15:27:53.348Z,25.02
2022-08-21T15:30:26.366Z,24.97
2022-08-21T15:32:59.071Z,24.82
2022-08-21T15:35:31.748Z,24.65
2022-08-21T15:38:07.119Z,24.45
2022-08-21T15:40:47.764Z,24.36
2022-08-21T15:43:30.007Z,24.35
2022-08-21T15:46:03.202Z,24.23
2022-08-21T15:48:35.722Z,24.04
2022-08-21T15:51:08.906Z,23.92
2022-08-21T15:53:42.267Z,23.95
2022-08-21T15:56:20.810Z,23.96
2022-08-21T15:59:00.440Z,23.98
2022-08-21T16:01:44.151Z,24.02
2022-08-21T16:04:22.966Z,23.96
2022-08-21T16:07:01.069Z,23.83
2022-08-21T16:09:37.812Z,23.79
2022-08-21T16:12:14.858Z,23.68
2022-08-21T16:14:49.944Z,23.61
2022-08-21T16:17:28.201Z,23.58
2022-08-21T16:20:03.063Z,23.57
2022-08-21T16:22:44.645Z,23.54
2022-08-21T16:25:17.691Z,23.42
2022-08-21T16:27:58.574Z,23.33
2022-08-21T16:30:32.504Z,23.31
2022-08-21T16:33:06.199Z,23.23
2022-08-21T16:35:38.586Z,23.22
2022-08-21T16:38:11.024Z,23.20
2022-08-21T16:40:43.455Z,23.10
2022-08-21T16:43:16.254Z,23.17
2022-08-21T16:45:49.344Z,23.09
2022-08-21T16:48:22.159Z,23.05
2022-08-21T16:50:55.085Z,23.08
2022-08-21T16:53:27.580Z,23.00
2022-08-21T16:56:00.747Z,23.04
2022-08-21T16:58:36.070Z,23.06
2022-08-21T17:01:12.520Z,22.99
2022-08-21T17:03:48.067Z,23.01
2022-08-21T17:06:22.070Z,23.01
2022-08-21T17:08:54.476Z,23.01
2022-08-21T17:11:37.471Z,22.96
2022-08-21T17:14:13.296Z,22.81
2022-08-21T17:16:49.300Z,22.90
2022-08-21T17:19:22.619Z,22.88
2022-08-21T17:21:55.072Z,22.87
2022-08-21T17:24:27.572Z,22.86
2022-08-21T17:27:00.617Z,22.80
2022-08-21T17:29:36.466Z,22.82
2022-08-21T17:32:11.731Z,22.80
2022-08-21T17:34:46.215Z,22.73
2022-08-21T17:37:20.288Z,22.71
2022-08-21T17:39:52.812Z,22.58
2022-08-21T17:42:25.502Z,22.52
2022-08-21T17:44:58.318Z,22.47
2022-08-21T17:47:31.904Z,22.37
2022-08-21T17:50:05.481Z,22.22
2022-08-21T17:52:38.766Z,22.22
2022-08-21T17:55:11.705Z,22.15
2022-08-21T17:57:45.261Z,22.14
2022-08-21T18:00:19.523Z,22.09
2022-08-21T18:03:00.095Z,21.99
2022-08-21T18:05:32.786Z,21.92
2022-08-21T18:08:05.210Z,21.86
2022-08-21T18:10:39.966Z,21.81
2022-08-21T18:13:15.463Z,21.79
2022-08-21T18:15:51.251Z,21.67
2022-08-21T18:18:25.343Z,21.64
2022-08-21T18:20:58.457Z,21.58
2022-08-21T18:23:43.971Z,21.62
2022-08-21T18:26:25.518Z,21.53
2022-08-21T18:29:01.871Z,21.44
2022-08-21T18:31:37.191Z,21.42
2022-08-21T18:34:24.016Z,21.44
2022-08-21T18:36:56.784Z,21.44
2022-08-21T18:39:36.797Z,21.43
2022-08-21T18:42:12.053Z,21.40
2022-08-21T18:44:49.797Z,21.44
2022-08-21T18:47:32.003Z,21.35
2022-08-21T18:50:10.707Z,21.27
2022-08-21T18:55:41.243Z,21.23
2022-08-21T18:58:16.567Z,21.18
2022-08-21T19:00:50.911Z,21.12
2022-08-21T19:03:25.250Z,21.06
2022-08-21T19:05:59.318Z,21.07
2022-08-21T19:08:31.935Z,21.08
2022-08-21T19:11:05.964Z,21.11
2022-08-21T19:13:39.950Z,21.02
2022-08-21T19:16:21.860Z,21.00
2022-08-21T19:18:54.459Z,20.99
2022-08-21T19:21:32.086Z,21.01
2022-08-21T19:26:57.641Z,20.95
2022-08-21T19:29:34.974Z,21.03
2022-08-21T19:32:08.979Z,21.04
2022-08-21T19:34:42.160Z,21.05
2022-08-21T19:37:16.278Z,21.06
2022-08-21T19:39:50.660Z,21.04
2022-08-21T19:42:28.901Z,20.96
2022-08-21T19:45:04.442Z,20.99
2022-08-21T19:47:42.315Z,20.90
2022-08-21T19:56:01.514Z,20.94
2022-08-21T19:58:36.568Z,20.96
2022-08-21T20:01:11.598Z,20.96
2022-08-21T20:06:42.348Z,20.94
2022-08-21T20:09:16.701Z,20.92
2022-08-21T20:11:51.850Z,20.87
2022-08-21T20:14:27.341Z,20.90
2022-08-21T20:17:10.552Z,20.89
2022-08-21T20:19:45.740Z,20.88
2022-08-21T20:22:18.562Z,20.85
2022-08-21T20:24:51.676Z,20.75
2022-08-21T20:27:26.507Z,20.64
2022-08-21T20:29:59.823Z,20.51
2022-08-21T20:32:32.440Z,20.47
2022-08-21T20:35:06.592Z,20.36
2022-08-21T20:37:46.148Z,20.19
2022-08-21T20:40:33.073Z,20.08
2022-08-21T20:43:06.450Z,19.92
2022-08-21T20:45:39.352Z,19.71
2022-08-21T20:48:16.607Z,19.66
2022-08-21T20:50:52.707Z,19.62
2022-08-21T20:53:43.180Z,19.58
2022-08-21T20:56:26.802Z,19.43
2022-08-21T20:59:13.831Z,19.34
2022-08-21T21:01:47.539Z,19.25
2022-08-21T21:04:33.519Z,19.13
2022-08-21T21:07:09.223Z,19.10
2022-08-21T21:09:45.180Z,19.18
2022-08-21T21:12:27.925Z,19.18
2022-08-21T21:15:06.879Z,19.22
2022-08-21T21:17:47.304Z,19.29
2022-08-21T21:20:29.262Z,19.30
2022-08-21T21:23:12.510Z,19.26
2022-08-21T21:25:53.916Z,19.28
2022-08-21T21:28:36.326Z,19.23
2022-08-21T21:31:08.738Z,19.32
2022-08-21T21:33:42.025Z,19.34
2022-08-21T21:36:25.286Z,19.36
2022-08-21T21:39:08.933Z,19.34
2022-08-21T21:41:50.019Z,19.36
2022-08-21T21:44:46.255Z,19.32
2022-08-21T21:47:31.189Z,19.21
2022-08-21T21:50:20.048Z,19.11
2022-08-21T21:52:59.184Z,19.14
2022-08-21T21:55:46.330Z,19.05
2022-08-21T21:58:53.707Z,19.03
2022-08-21T22:01:34.182Z,18.98
2022-08-21T22:04:16.933Z,18.87
2022-08-21T22:06:55.999Z,18.86
2022-08-21T22:09:40.074Z,18.82
2022-08-21T22:12:49.862Z,18.69
2022-08-21T22:18:18.613Z,18.79
2022-08-21T22:20:57.436Z,18.79
2022-08-21T22:23:33.984Z,18.81
2022-08-21T22:26:10.988Z,18.88
2022-08-21T22:28:46.887Z,18.85
2022-08-21T22:31:22.755Z,18.84
2022-08-21T22:34:18.098Z,18.87
2022-08-21T22:36:59.023Z,18.86
2022-08-21T22:39:39.268Z,18.87
2022-08-21T22:42:19.746Z,18.83
2022-08-21T22:44:55.924Z,18.84
2022-08-21T22:47:34.149Z,18.79
2022-08-21T22:51:46.616Z,18.77
2022-08-21T22:54:23.891Z,18.72
2022-08-21T22:57:00.105Z,18.75
2022-08-21T22:59:36.642Z,18.75
2022-08-21T23:02:24.117Z,18.79
2022-08-21T23:04:59.118Z,18.73
2022-08-21T23:07:36.238Z,18.64
2022-08-21T23:10:21.335Z,18.71
2022-08-21T23:13:01.571Z,18.73
2022-08-21T23:15:45.373Z,18.60
2022-08-21T23:18:26.812Z,18.53
2022-08-21T23:21:09.512Z,18.52
2022-08-21T23:23:54.691Z,18.48
2022-08-21T23:26:39.723Z,18.48
2022-08-21T23:29:29.789Z,18.46
2022-08-21T23:32:14.689Z,18.45
2022-08-21T23:35:02.651Z,18.44
2022-08-21T23:37:51.780Z,18.39
2022-08-21T23:40:50.940Z,18.31
2022-08-21T23:43:36.730Z,18.32
2022-08-21T23:49:32.826Z,18.21
2022-08-21T23:52:15.583Z,18.20
2022-08-21T23:55:03.085Z,18.22
2022-08-21T23:57:48.029Z,18.24
